Time;durP1;ratioP1;P1;durP2;ratioP2;P2;SDS_P1;SDS_P2;PMS_P1;PMS_P2;Temp;Humidity;BMP_temperature;BMP_pressure;BME280_temperature;BME280_humidity;BME280_pressure;Samples;Min_cycle;Max_cycle;Signal;HPM_P1;HPM_P2
2023/01/31 02:17:32;;;;;;;13.20;5.90;;;;;;;-3.14;100.00;98332.27;104612;1296;1003067;-75
2023/01/31 02:20:25;;;;;;;15.50;5.90;;;;;;;-2.99;100.00;98255.45;106598;1286;221517;-75
2023/01/31 02:23:27;;;;;;;14.00;5.70;;;;;;;-2.95;100.00;98263.73;106812;1286;25265;-74
2023/01/31 02:26:09;;;;;;;12.50;5.60;;;;;;;-2.94;100.00;98265.80;106830;1286;25297;-74
2023/01/31 02:28:57;;;;;;;12.70;5.60;;;;;;;-2.95;100.00;98270.25;106836;1287;26786;-75
2023/01/31 02:32:03;;;;;;;14.50;5.90;;;;;;;-2.94;100.00;98272.51;106046;1286;1002347;-74
2023/01/31 02:35:02;;;;;;;14.80;6.50;;;;;;;-2.95;100.00;98279.80;106122;1287;1003337;-75
2023/01/31 02:37:35;;;;;;;14.70;5.90;;;;;;;-2.94;100.00;98279.70;106063;1287;1003135;-76
2023/01/31 02:40:33;;;;;;;13.00;5.40;;;;;;;-2.94;100.00;98280.08;106786;1286;25352;-76
2023/01/31 02:43:09;;;;;;;12.90;5.90;;;;;;;-2.94;100.00;98283.58;106179;1287;1003091;-76
2023/01/31 02:45:56;;;;;;;13.40;5.70;;;;;;;-2.93;100.00;98285.61;106929;1286;22549;-76
2023/01/31 02:48:47;;;;;;;13.60;5.60;;;;;;;-2.93;100.00;98287.94;106790;1286;25977;-75
2023/01/31 02:51:29;;;;;;;14.80;6.00;;;;;;;-2.96;100.00;98294.17;106023;1286;1003439;-75
2023/01/31 02:54:01;;;;;;;16.30;6.80;;;;;;;-2.98;100.00;98297.03;106880;1286;22537;-75
2023/01/31 02:56:32;;;;;;;15.30;6.30;;;;;;;-3.03;100.00;98303.04;106864;1286;22547;-77
2023/01/31 02:59:25;;;;;;;13.90;6.00;;;;;;;-3.07;100.00;98313.09;106090;1286;1003045;-75
2023/01/31 03:01:57;;;;;;;;;;;;;;;-3.09;100.00;98316.95;106989;1287;23884;-74
2023/01/31 03:04:29;;;;;;;14.20;6.10;;;;;;;-3.11;100.00;98321.17;106955;1286;22536;-74
2023/01/31 03:07:01;;;;;;;17.30;6.30;;;;;;;-3.13;100.00;98322.03;106904;1286;22474;-74
2023/01/31 03:09:35;;;;;;;14.00;5.80;;;;;;;-3.15;100.00;98318.85;106178;1286;1003261;-75
2023/01/31 03:12:11;;;;;;;16.10;6.80;;;;;;;-3.16;100.00;98314.38;107033;1286;22611;-75
2023/01/31 03:14:59;;;;;;;15.30;6.40;;;;;;;-3.17;100.00;98309.28;107171;1286;24228;-75
2023/01/31 03:17:53;;;;;;;13.10;5.80;;;;;;;-3.16;100.00;98302.95;107068;1286;25472;-76
2023/01/31 03:20:43;;;;;;;;;;;;;;;-3.16;100.00;98297.27;106866;1287;22541;-76
2023/01/31 03:23:19;;;;;;;12.60;5.90;;;;;;;-3.19;100.00;98293.05;106768;1279;1003397;-76
2023/01/31 03:25:49;;;;;;;12.90;6.00;;;;;;;-3.20;100.00;98288.08;107497;1279;26051;-76
2023/01/31 03:28:23;;;;;;;17.90;6.70;;;;;;;-3.22;100.00;98288.39;107489;1279;25626;-75
2023/01/31 03:31:26;;;;;;;13.60;5.80;;;;;;;-3.24;100.00;98283.59;106738;1279;1002896;-74
2023/01/31 03:33:58;;;;;;;15.80;6.60;;;;;;;-3.26;100.00;98285.36;107403;1279;25440;-75
2023/01/31 03:36:30;;;;;;;18.80;7.40;;;;;;;-3.27;100.00;98293.41;107216;1279;22610;-75
2023/01/31 03:39:30;;;;;;;23.80;9.30;;;;;;;-3.28;100.00;98282.19;107395;1279;26045;-75
2023/01/31 03:42:08;;;;;;;23.30;9.00;;;;;;;-3.31;100.00;98268.54;107390;1279;26053;-74
2023/01/31 03:44:46;;;;;;;19.70;8.70;;;;;;;-3.31;100.00;98274.12;107373;1279;24344;-75
2023/01/31 03:47:20;;;;;;;21.10;8.80;;;;;;;-3.31;100.00;98273.77;107259;1279;25432;-75
2023/01/31 03:49:51;;;;;;;19.60;7.70;;;;;;;-3.31;100.00;98274.00;106489;1279;1003698;-75
2023/01/31 03:52:24;;;;;;;16.40;6.90;;;;;;;-3.32;100.00;98277.73;107365;1279;25297;-76
2023/01/31 03:54:54;;;;;;;;;;;;;;;-3.33;100.00;98272.20;106600;1279;1003667;-74
2023/01/31 03:57:43;;;;;;;14.50;5.60;;;;;;;-3.35;100.00;98261.63;107414;1279;22723;-73
2023/01/31 04:00:13;;;;;;;15.40;6.50;;;;;;;-3.38;100.00;98254.29;107271;1279;24636;-75
2023/01/31 04:02:53;;;;;;;17.20;7.00;;;;;;;-3.39;100.00;98248.95;107289;1279;25904;-75
2023/01/31 04:05:23;;;;;;;17.40;6.70;;;;;;;-3.43;100.00;98246.05;106426;1279;1004973;-75
2023/01/31 04:07:54;;;;;;;20.50;7.40;;;;;;;-3.44;100.00;98238.91;107364;1279;22526;-75
2023/01/31 04:10:25;;;;;;;20.30;7.70;;;;;;;-3.45;100.00;98230.67;107376;1279;25510;-74
2023/01/31 04:12:56;;;;;;;17.40;7.80;;;;;;;-3.45;100.00;98226.16;107253;1279;23730;-75
2023/01/31 04:15:25;;;;;;;15.90;6.90;;;;;;;-3.45;100.00;98215.24;107225;1279;25322;-75
2023/01/31 04:17:54;;;;;;;16.90;7.60;;;;;;;-3.46;100.00;98208.05;107470;1279;26558;-76
2023/01/31 04:20:23;;;;;;;19.60;7.70;;;;;;;-3.45;100.00;98202.69;107321;1279;23899;-76
2023/01/31 04:22:51;;;;;;;17.80;7.50;;;;;;;-3.44;100.00;98193.45;107467;1279;22530;-76
2023/01/31 04:25:23;;;;;;;18.20;6.90;;;;;;;-3.43;100.00;98183.89;106923;1279;1003203;-75
2023/01/31 04:27:51;;;;;;;16.60;7.20;;;;;;;-3.42;100.00;98173.26;107460;1279;22588;-73
2023/01/31 04:30:20;;;;;;;29.10;9.60;;;;;;;-3.42;100.00;98167.96;106541;1279;1002619;-75
2023/01/31 04:32:50;;;;;;;23.50;9.50;;;;;;;-3.42;100.00;98162.63;107437;1279;25433;-75
2023/01/31 04:35:20;;;;;;;25.60;10.30;;;;;;;-3.42;100.00;98154.91;106746;1279;1003549;-75
2023/01/31 04:37:49;;;;;;;24.10;10.10;;;;;;;-3.41;100.00;98147.64;106881;1279;1003269;-74
2023/01/31 04:40:21;;;;;;;21.90;9.30;;;;;;;-3.41;100.00;98143.05;106723;1279;1003580;-75
2023/01/31 04:42:49;;;;;;;15.90;7.30;;;;;;;-3.41;100.00;98137.58;107380;1279;26561;-75
2023/01/31 04:45:18;;;;;;;17.40;8.10;;;;;;;-3.42;100.00;98132.39;107441;1279;25437;-74
2023/01/31 04:47:48;;;;;;;19.80;7.90;;;;;;;-3.44;100.00;98132.11;106775;1279;1002385;-75
2023/01/31 04:50:17;;;;;;;18.10;7.50;;;;;;;-3.42;100.00;98124.46;107413;1279;25965;-74
2023/01/31 04:52:49;;;;;;;19.90;7.80;;;;;;;-3.41;100.00;98125.27;107486;1279;22765;-74
2023/01/31 04:55:18;;;;;;;18.10;8.00;;;;;;;-3.41;100.00;98117.48;107263;1279;23764;-76
2023/01/31 04:57:47;;;;;;;21.90;7.90;;;;;;;-3.39;100.00;98118.19;107356;1279;23140;-73
2023/01/31 05:00:17;;;;;;;20.80;8.80;;;;;;;-3.36;100.00;98119.38;106976;1279;1003057;-75
2023/01/31 05:02:46;;;;;;;18.10;7.90;;;;;;;-3.34;100.00;98124.80;107526;1279;25459;-77
2023/01/31 05:05:14;;;;;;;16.30;7.50;;;;;;;-3.32;100.00;98121.15;107303;1279;23916;-75
2023/01/31 05:07:43;;;;;;;16.00;7.80;;;;;;;-3.33;100.00;98116.64;106811;1279;1002826;-76
2023/01/31 05:10:12;;;;;;;18.10;8.20;;;;;;;-3.35;100.00;98114.32;106893;1279;1002843;-74
2023/01/31 05:12:41;;;;;;;16.30;8.50;;;;;;;-3.38;100.00;98115.98;106791;1279;1002848;-75
2023/01/31 05:15:12;;;;;;;33.90;12.20;;;;;;;-3.39;100.00;98116.08;106838;1279;1003284;-76
2023/01/31 05:17:41;;;;;;;45.90;15.90;;;;;;;-3.40;100.00;98114.95;107727;1279;25517;-75
2023/01/31 05:20:10;;;;;;;64.60;19.40;;;;;;;-3.42;100.00;98118.61;107720;1279;22522;-74
2023/01/31 05:22:40;;;;;;;47.50;16.10;;;;;;;-3.43;100.00;98118.36;107497;1279;25951;-75
2023/01/31 05:25:09;;;;;;;31.40;12.00;;;;;;;-3.42;100.00;98119.01;107458;1279;25297;-76
2023/01/31 05:27:38;;;;;;;25.20;9.20;;;;;;;-3.42;100.00;98115.60;107506;1279;23803;-74
2023/01/31 05:30:08;;;;;;;37.20;12.90;;;;;;;-3.42;100.00;98114.36;107447;1279;23765;-75
2023/01/31 05:32:38;;;;;;;36.80;12.80;;;;;;;-3.41;100.00;98113.28;107410;1273;26016;-74
2023/01/31 05:35:07;;;;;;;27.90;10.10;;;;;;;-3.43;100.00;98112.35;106612;1280;1003842;-75
2023/01/31 05:37:35;;;;;;;28.30;9.70;;;;;;;-3.44;100.00;98115.58;107200;1280;24346;-76
2023/01/31 05:40:10;;;;;;;26.90;9.70;;;;;;;-3.41;100.00;98114.53;107263;1281;25310;-75
2023/01/31 05:42:40;;;;;;;28.20;10.00;;;;;;;-3.41;100.00;98113.79;106583;1281;1003039;-74
2023/01/31 05:45:09;;;;;;;27.20;9.80;;;;;;;-3.39;100.00;98110.96;107251;1280;22556;-75
2023/01/31 05:47:38;;;;;;;26.30;10.10;;;;;;;-3.36;100.00;98104.52;107390;1280;23128;-74
2023/01/31 05:50:10;;;;;;;28.50;10.80;;;;;;;-3.34;100.00;98095.95;107424;1280;26494;-76
2023/01/31 05:52:39;;;;;;;28.40;10.00;;;;;;;-3.33;100.00;98093.40;106810;1280;1003085;-76
2023/01/31 05:55:08;;;;;;;20.60;8.50;;;;;;;-3.33;100.00;98094.07;107425;1281;22523;-75
2023/01/31 05:57:36;;;;;;;22.70;9.00;;;;;;;-3.33;100.00;98093.72;106774;1280;1002918;-75
2023/01/31 06:00:07;;;;;;;20.40;8.40;;;;;;;-3.33;100.00;98095.45;107430;1280;25456;-76
2023/01/31 06:02:39;;;;;;;;;;;;;;;-3.29;100.00;98096.55;107289;1281;23742;-75
2023/01/31 06:05:08;;;;;;;30.20;12.60;;;;;;;-3.24;100.00;98090.51;106750;1280;1003619;-74
2023/01/31 06:07:41;;;;;;;36.40;14.90;;;;;;;-3.19;100.00;98081.98;107398;1281;24287;-74
2023/01/31 06:10:10;;;;;;;35.00;15.00;;;;;;;-3.19;100.00;98078.39;107343;1280;23882;-74
2023/01/31 06:12:39;;;;;;;33.40;15.70;;;;;;;-3.16;100.00;98078.19;107243;1280;26715;-76
2023/01/31 06:15:09;;;;;;;30.50;13.90;;;;;;;-3.13;100.00;98078.80;106492;1280;1003292;-73
2023/01/31 06:17:38;;;;;;;34.80;17.20;;;;;;;-3.09;100.00;98075.08;107131;1279;23876;-75
2023/01/31 06:20:09;;;;;;;30.30;15.00;;;;;;;-3.08;100.00;98067.61;107316;1279;23867;-76
2023/01/31 06:22:38;;;;;;;26.90;13.00;;;;;;;-3.07;100.00;98064.66;107219;1279;25242;-76
2023/01/31 06:25:07;;;;;;;27.70;13.30;;;;;;;-3.05;100.00;98060.15;106751;1279;1003452;-76
2023/01/31 06:27:39;;;;;;;23.20;11.40;;;;;;;-3.02;100.00;98055.95;107125;1273;22546;-75
2023/01/31 06:30:09;;;;;;;20.60;10.20;;;;;;;-2.98;100.00;98050.20;107595;1279;25300;-75
2023/01/31 06:32:38;;;;;;;26.00;11.90;;;;;;;-2.97;100.00;98053.46;107441;1279;23790;-75
2023/01/31 06:35:07;;;;;;;29.80;13.40;;;;;;;-2.96;100.00;98053.52;106722;1279;1002817;-76
2023/01/31 06:37:36;;;;;;;21.80;9.70;;;;;;;-2.93;100.00;98047.44;106693;1279;1005022;-76
2023/01/31 06:40:06;;;;;;;21.00;9.10;;;;;;;-2.88;100.00;98044.89;106949;1276;1003382;-75
2023/01/31 06:42:34;;;;;;;20.50;8.80;;;;;;;-2.83;100.00;98036.38;106542;1273;1003646;-74
2023/01/31 06:45:03;;;;;;;28.80;10.50;;;;;;;-2.78;100.00;98030.54;106589;1280;1003333;-76
2023/01/31 06:47:32;;;;;;;20.70;8.90;;;;;;;-2.70;100.00;98021.59;107103;1279;26643;-74
2023/01/31 06:50:01;;;;;;;19.60;8.20;;;;;;;-2.62;100.00;98021.63;107208;1280;22571;-74
2023/01/31 06:52:31;;;;;;;24.80;9.60;;;;;;;-2.56;100.00;98023.67;107401;1273;25639;-73
2023/01/31 06:54:59;;;;;;;23.70;9.90;;;;;;;-2.56;100.00;98028.45;106653;1280;1003575;-74
2023/01/31 06:57:28;;;;;;;18.10;8.20;;;;;;;-2.59;100.00;98037.18;106754;1273;1003051;-75
2023/01/31 06:59:58;;;;;;;18.30;8.20;;;;;;;-2.60;100.00;98036.09;107550;1279;25320;-77
2023/01/31 07:02:27;;;;;;;17.90;8.20;;;;;;;-2.61;100.00;98041.47;107589;1279;22583;-74
2023/01/31 07:04:56;;;;;;;16.50;7.70;;;;;;;-2.62;100.00;98045.42;107517;1279;24239;-74
2023/01/31 07:07:27;;;;;;;17.20;6.50;;;;;;;-2.59;100.00;98042.33;107361;1279;25423;-77
2023/01/31 07:09:56;;;;;;;20.40;8.90;;;;;;;-2.59;100.00;98054.48;107526;1279;25256;-75
2023/01/31 07:12:26;;;;;;;21.20;8.70;;;;;;;-2.57;100.00;98058.20;107383;1279;25439;-76
2023/01/31 07:14:55;;;;;;;21.60;9.40;;;;;;;-2.54;100.00;98054.41;107506;1279;22579;-73
2023/01/31 07:17:24;;;;;;;20.80;8.40;;;;;;;-2.46;100.00;98048.38;106275;1280;1003337;-73
2023/01/31 07:19:53;;;;;;;20.50;8.50;;;;;;;-2.40;100.00;98055.79;106313;1279;1002937;-73
2023/01/31 07:22:22;;;;;;;17.10;7.50;;;;;;;-2.36;100.00;98056.02;106327;1276;1003216;-73
2023/01/31 07:24:50;;;;;;;18.10;7.70;;;;;;;-2.29;100.00;98054.09;107016;1279;25581;-74
2023/01/31 07:27:19;;;;;;;18.80;8.40;;;;;;;-2.26;100.00;98060.17;107088;1279;22547;-73
2023/01/31 07:29:48;;;;;;;16.00;7.20;;;;;;;-2.24;100.00;98063.71;106828;1273;22559;-73
2023/01/31 07:32:19;;;;;;;24.20;9.90;;;;;;;-2.22;100.00;98062.13;106235;1279;1002924;-73
2023/01/31 07:34:48;;;;;;;19.60;9.30;;;;;;;-2.18;100.00;98068.09;107115;1280;22772;-73
2023/01/31 07:37:17;;;;;;;24.20;11.30;;;;;;;-2.14;100.00;98070.38;106412;1280;1002498;-74
2023/01/31 07:39:47;;;;;;;20.50;9.50;;;;;;;-2.08;100.00;98073.93;107159;1281;22546;-74
2023/01/31 07:42:17;;;;;;;21.40;9.60;;;;;;;-2.03;100.00;98071.00;107092;1280;26620;-74
2023/01/31 07:44:46;;;;;;;18.60;9.10;;;;;;;-2.00;100.00;98077.80;106335;1273;1002830;-74
2023/01/31 07:47:14;;;;;;;18.90;8.70;;;;;;;-1.97;100.00;98080.51;106488;1276;1015261;-73
2023/01/31 07:49:43;;;;;;;18.50;8.90;;;;;;;-1.95;100.00;98083.16;107208;1275;25307;-75
2023/01/31 07:52:12;;;;;;;20.90;8.80;;;;;;;-1.93;100.00;98093.55;106775;1275;1002723;-74
2023/01/31 07:54:41;;;;;;;22.20;8.90;;;;;;;-1.91;100.00;98096.56;106403;1273;1003792;-73
2023/01/31 07:57:16;;;;;;;19.60;8.20;;;;;;;-1.86;100.00;98103.42;107415;1275;26649;-74
2023/01/31 07:59:45;;;;;;;20.20;8.80;;;;;;;-1.80;100.00;98099.13;107758;1269;23659;-73
2023/01/31 08:05:04;;;;;;;19.30;8.10;;;;;;;-1.57;100.00;98099.30;107515;1275;24446;-72
2023/01/31 08:07:33;;;;;;;18.20;8.50;;;;;;;-1.47;100.00;98098.40;107333;1275;25395;-71
2023/01/31 08:10:02;;;;;;;21.90;11.10;;;;;;;-1.39;100.00;98100.44;107442;1275;22540;-71
2023/01/31 08:12:31;;;;;;;18.30;8.90;;;;;;;-1.34;100.00;98104.95;106548;1275;1003233;-72
2023/01/31 08:15:00;;;;;;;19.20;7.50;;;;;;;-1.35;100.00;98122.70;107377;1270;24239;-70
2023/01/31 08:17:30;;;;;;;18.50;6.70;;;;;;;-1.38;100.00;98143.00;107240;1273;23818;-71
2023/01/31 08:19:59;;;;;;;15.10;6.30;;;;;;;-1.38;100.00;98155.89;107558;1275;25390;-72
2023/01/31 08:22:28;;;;;;;18.10;6.70;;;;;;;-1.40;100.00;98167.88;106934;1275;1002889;-72
2023/01/31 08:24:58;;;;;;;15.90;6.40;;;;;;;-1.37;100.00;98178.95;107524;1275;25433;-73
2023/01/31 08:27:27;;;;;;;15.10;6.70;;;;;;;-1.32;100.00;98189.66;106873;1269;1002597;-72
2023/01/31 08:29:57;;;;;;;20.00;8.00;;;;;;;-1.33;100.00;98206.89;106702;1270;1002417;-72
2023/01/31 08:32:25;;;;;;;17.70;7.30;;;;;;;-1.35;100.00;98220.68;106917;1270;1003037;-72
2023/01/31 08:34:55;;;;;;;17.00;7.60;;;;;;;-1.34;100.00;98229.24;106709;1272;1002358;-71
2023/01/31 08:37:31;;;;;;;16.80;7.30;;;;;;;-1.33;100.00;98231.48;107611;1275;24222;-71
2023/01/31 08:40:10;;;;;;;18.80;7.50;;;;;;;-1.29;100.00;98234.31;107506;1273;22533;-71
2023/01/31 08:42:56;;;;;;;18.60;7.40;;;;;;;-1.28;100.00;98242.85;107327;1270;22772;-72
2023/01/31 08:45:26;;;;;;;19.60;8.00;;;;;;;-1.26;100.00;98248.17;107093;1272;1002892;-74
2023/01/31 08:47:58;;;;;;;17.30;7.90;;;;;;;-1.23;100.00;98251.23;107767;1276;24345;-73
2023/01/31 08:50:38;;;;;;;16.40;7.80;;;;;;;-1.20;100.00;98255.55;108092;1261;22543;-74
2023/01/31 08:53:17;;;;;;;18.30;8.10;;;;;;;-1.15;100.00;98253.33;106653;1276;1003237;-73
2023/01/31 08:55:48;;;;;;;16.20;6.90;;;;;;;-1.14;100.00;98253.20;107476;1270;26061;-76
2023/01/31 08:58:17;;;;;;;17.20;7.60;;;;;;;-1.17;100.00;98265.19;106657;1272;1003220;-73
2023/01/31 09:00:46;;;;;;;18.20;7.70;;;;;;;-1.24;100.00;98274.13;107352;1275;25457;-75
2023/01/31 09:03:18;;;;;;;17.90;7.60;;;;;;;-1.26;100.00;98282.98;107545;1275;22552;-73
2023/01/31 09:05:52;;;;;;;20.70;9.10;;;;;;;-1.23;100.00;98279.34;107710;1272;22543;-76
2023/01/31 09:08:22;;;;;;;17.90;8.50;;;;;;;-1.19;100.00;98283.06;107338;1270;26508;-71
2023/01/31 09:10:57;;;;;;;19.60;7.50;;;;;;;-1.14;100.00;98271.67;106979;1272;24167;-71
2023/01/31 09:13:28;;;;;;;17.80;7.90;;;;;;;-1.07;100.00;98262.80;107016;1270;25402;-71
2023/01/31 09:16:10;;;;;;;17.60;8.30;;;;;;;-1.01;100.00;98266.02;106245;1269;1003637;-70
2023/01/31 09:18:39;;;;;;;23.50;8.50;;;;;;;-0.98;100.00;98262.20;107217;1269;22531;-71
2023/01/31 09:21:27;;;;;;;24.60;9.80;;;;;;;-0.94;100.00;98263.44;106228;1275;1003171;-68
2023/01/31 09:24:02;;;;;;;38.80;14.30;;;;;;;-0.93;100.00;98265.09;106518;1276;22656;-67
2023/01/31 09:26:33;;;;;;;27.50;11.20;;;;;;;-0.92;100.00;98272.84;106952;1270;25532;-67
2023/01/31 09:29:03;;;;;;;20.10;8.60;;;;;;;-0.92;100.00;98271.05;106921;1275;22539;-71
2023/01/31 09:31:58;;;;;;;19.10;7.80;;;;;;;-0.97;100.00;98279.59;106566;1270;1003606;-66
2023/01/31 09:34:35;;;;;;;23.90;9.90;;;;;;;-0.98;100.00;98273.34;107094;1270;25268;-73
2023/01/31 09:37:18;;;;;;;23.80;7.50;;;;;;;-0.91;100.00;98270.20;107826;1271;22562;-76
2023/01/31 09:40:30;;;;;;;17.20;7.10;;;;;;;-0.84;100.00;98253.33;107162;1269;1002910;-76
2023/01/31 09:43:23;;;;;;;20.40;8.40;;;;;;;-0.74;100.00;98241.81;107166;1269;1002926;-75
2023/01/31 09:47:45;;;;;;;19.30;8.20;;;;;;;-0.62;100.00;98232.98;107803;1269;25319;-75
2023/01/31 09:50:31;;;;;;;21.20;9.20;;;;;;;-0.62;100.00;98236.00;107133;1270;1002926;-77
2023/01/31 09:53:02;;;;;;;19.10;7.80;;;;;;;-0.60;100.00;98232.81;108182;1269;25326;-76
2023/01/31 09:55:41;;;;;;;21.60;8.70;;;;;;;-0.61;100.00;98234.40;107736;1270;22995;-69
2023/01/31 09:58:46;;;;;;;16.20;7.10;;;;;;;-0.57;100.00;98235.23;107096;1269;25494;-72
2023/01/31 10:01:33;;;;;;;20.10;8.40;;;;;;;-0.55;100.00;98234.23;106332;1254;1003177;-69
2023/01/31 10:04:16;;;;;;;18.90;7.70;;;;;;;-0.60;100.00;98240.95;106288;1273;1003864;-70
2023/01/31 10:06:57;;;;;;;18.90;7.60;;;;;;;-0.57;100.00;98234.31;107207;1270;25613;-73
2023/01/31 10:09:44;;;;;;;18.60;7.60;;;;;;;-0.60;100.00;98237.80;107105;1269;25426;-69
2023/01/31 10:12:39;;;;;;;19.60;7.80;;;;;;;-0.62;100.00;98239.88;106976;1269;25865;-71
2023/01/31 10:15:24;;;;;;;17.10;7.30;;;;;;;-0.54;100.00;98234.77;106845;1270;1003092;-74
2023/01/31 10:18:00;;;;;;;16.30;6.80;;;;;;;-0.50;100.00;98232.06;107841;1270;25310;-74
2023/01/31 10:20:32;;;;;;;16.20;7.10;;;;;;;-0.48;100.00;98230.65;107966;1276;26522;-74
2023/01/31 10:32:37;;;;;;;15.80;7.00;;;;;;;-0.51;100.00;98307.23;104698;1286;563270;-70
2023/01/31 10:35:45;;;;;;;17.10;7.20;;;;;;;-0.54;100.00;98239.36;106505;1285;22681;-69
2023/01/31 10:38:40;;;;;;;17.20;7.10;;;;;;;-0.60;100.00;98243.79;105296;1288;1003080;-70
2023/01/31 10:41:13;;;;;;;22.00;8.20;;;;;;;-0.64;100.00;98250.54;106296;1288;22560;-69
2023/01/31 10:43:52;;;;;;;15.50;7.20;;;;;;;-0.62;100.00;98248.60;106209;1287;22932;-68
2023/01/31 10:46:21;;;;;;;18.20;8.00;;;;;;;-0.62;100.00;98248.06;105113;1285;1003414;-74
2023/01/31 10:48:48;;;;;;;17.70;7.50;;;;;;;-0.63;100.00;98245.47;106139;1282;22523;-76
2023/01/31 10:51:50;;;;;;;20.70;7.90;;;;;;;-0.61;100.00;98239.13;106287;1283;22556;-75
2023/01/31 10:54:46;;;;;;;19.40;7.60;;;;;;;-0.54;100.00;98229.83;106563;1282;22695;-75
2023/01/31 10:57:17;;;;;;;26.00;12.90;;;;;;;-0.53;100.00;98231.86;106414;1286;24422;-72
2023/01/31 10:59:45;;;;;;;24.20;12.50;;;;;;;-0.51;100.00;98230.40;105975;1285;24227;-73
2023/01/31 11:02:21;;;;;;;18.20;9.10;;;;;;;-0.43;100.00;98217.10;105494;1280;1003609;-72
2023/01/31 11:05:28;;;;;;;22.30;9.10;;;;;;;-0.36;100.00;98208.30;105502;1282;1002727;-71
2023/01/31 11:08:28;;;;;;;19.30;8.40;;;;;;;-0.29;100.00;98193.84;106274;1267;1003174;-73
2023/01/31 11:10:56;;;;;;;15.00;7.10;;;;;;;-0.29;100.00;98194.89;106699;1266;25378;-73
2023/01/31 11:13:23;;;;;;;18.10;7.80;;;;;;;-0.32;100.00;98197.30;107403;1267;22566;-73
2023/01/31 11:16:09;;;;;;;20.80;8.90;;;;;;;-0.34;100.00;98202.67;107260;1273;25549;-73
2023/01/31 11:18:43;;;;;;;22.90;9.20;;;;;;;-0.41;100.00;98207.48;106988;1274;24274;-74
2023/01/31 11:21:32;;;;;;;24.60;10.70;;;;;;;-0.43;100.00;98212.48;107067;1271;24383;-74
2023/01/31 11:24:21;;;;;;;29.70;9.70;;;;;;;-0.44;100.00;98211.09;106234;1273;1003571;-73
2023/01/31 11:26:54;;;;;;;19.00;8.80;;;;;;;-0.41;100.00;98207.52;107116;1273;25341;-73
2023/01/31 11:29:26;;;;;;;18.50;8.00;;;;;;;-0.40;100.00;98205.06;107091;1273;25567;-75
2023/01/31 11:31:53;;;;;;;23.00;8.40;;;;;;;-0.34;100.00;98198.06;107127;1273;25255;-73
2023/01/31 11:34:25;;;;;;;19.50;7.40;;;;;;;-0.31;100.00;98192.19;107068;1273;25488;-73
2023/01/31 11:36:53;;;;;;;20.50;8.30;;;;;;;-0.31;100.00;98192.55;106201;1275;1002862;-72
2023/01/31 11:39:31;;;;;;;20.90;8.20;;;;;;;-0.35;100.00;98202.36;106862;1274;25364;-71
2023/01/31 11:42:11;;;;;;;17.40;7.90;;;;;;;-0.36;100.00;98204.21;106291;1273;1003733;-71
2023/01/31 11:45:03;;;;;;;19.60;8.30;;;;;;;-0.41;100.00;98214.96;106627;1273;1003069;-72
2023/01/31 11:48:00;;;;;;;17.60;7.60;;;;;;;-0.42;100.00;98218.04;106314;1273;1003277;-75
2023/01/31 11:50:36;;;;;;;14.90;6.90;;;;;;;-0.39;100.00;98211.53;107107;1274;25398;-73
2023/01/31 11:53:14;;;;;;;;;;;;;;;-0.37;100.00;98212.64;107156;1267;25404;-73
2023/01/31 11:55:45;;;;;;;21.80;9.30;;;;;;;-0.34;100.00;98207.42;106368;1274;1003088;-73
2023/01/31 11:58:34;;;;;;;20.70;9.70;;;;;;;-0.33;100.00;98206.27;107037;1274;22530;-74
2023/01/31 12:01:15;;;;;;;19.10;8.80;;;;;;;-0.37;100.00;98204.70;107095;1274;25372;-74
2023/01/31 12:03:54;;;;;;;15.80;7.40;;;;;;;-0.40;100.00;98208.50;107120;1274;25318;-74
2023/01/31 12:07:27;;;;;;;19.70;7.60;;;;;;;-0.43;100.00;98210.54;106414;1267;1003328;-71
2023/01/31 12:09:55;;;;;;;14.80;7.00;;;;;;;-0.48;100.00;98212.95;107103;1273;22541;-72
2023/01/31 12:12:42;;;;;;;18.90;7.60;;;;;;;-0.51;100.00;98206.87;106387;1273;1002873;-74
2023/01/31 12:15:16;;;;;;;16.40;7.50;;;;;;;-0.54;100.00;98208.56;106359;1251;1003780;-75
2023/01/31 12:17:46;;;;;;;19.90;7.50;;;;;;;-0.53;100.00;98204.98;106309;1273;1002861;-75
2023/01/31 12:20:33;;;;;;;17.80;7.90;;;;;;;-0.52;100.00;98202.25;107260;1269;24247;-74
2023/01/31 12:23:10;;;;;;;17.40;8.10;;;;;;;-0.52;100.00;98199.85;109901;1273;1002556;-74
2023/01/31 12:26:04;;;;;;;16.10;7.80;;;;;;;-0.51;100.00;98201.17;107041;1266;25328;-70
2023/01/31 12:28:51;;;;;;;18.50;7.90;;;;;;;-0.49;100.00;98197.08;106945;1273;24295;-74
2023/01/31 12:31:25;;;;;;;20.90;8.00;;;;;;;-0.48;100.00;98195.61;107027;1267;25236;-74
2023/01/31 12:34:25;;;;;;;17.40;7.40;;;;;;;-0.48;100.00;98196.30;106370;1273;1016138;-72
2023/01/31 12:37:10;;;;;;;20.80;8.20;;;;;;;-0.49;100.00;98195.18;107082;1267;22532;-72
2023/01/31 12:39:56;;;;;;;20.10;9.00;;;;;;;-0.50;100.00;98193.86;107066;1260;22550;-74
2023/01/31 12:42:47;;;;;;;20.80;8.60;;;;;;;-0.53;100.00;98193.41;107055;1267;26621;-74
2023/01/31 12:45:24;;;;;;;22.70;9.10;;;;;;;-0.57;100.00;98193.59;107035;1274;26625;-73
2023/01/31 12:48:10;;;;;;;18.80;9.20;;;;;;;-0.61;100.00;98190.15;106945;1274;25405;-72
2023/01/31 12:50:55;;;;;;;20.10;8.20;;;;;;;-0.66;100.00;98190.98;106978;1274;25482;-72
2023/01/31 12:53:47;;;;;;;16.50;7.50;;;;;;;-0.69;100.00;98184.56;106963;1274;25245;-74
2023/01/31 12:56:40;;;;;;;18.00;7.70;;;;;;;-0.74;100.00;98182.81;106248;1274;1002659;-72
2023/01/31 12:59:53;;;;;;;16.50;7.60;;;;;;;-0.76;100.00;98178.98;107046;1267;26576;-75
2023/01/31 13:02:56;;;;;;;17.70;8.30;;;;;;;-0.80;100.00;98175.45;107032;1273;25418;-75
2023/01/31 13:05:51;;;;;;;17.90;8.20;;;;;;;-0.88;100.00;98172.62;106653;1273;25245;-74
2023/01/31 13:08:29;;;;;;;22.00;9.50;;;;;;;-0.92;100.00;98166.46;107089;1273;26964;-74
2023/01/31 13:10:59;;;;;;;22.90;9.40;;;;;;;-0.93;100.00;98162.30;107134;1273;25290;-75
2023/01/31 13:13:44;;;;;;;22.70;10.30;;;;;;;-0.96;100.00;98156.25;106448;1273;1002836;-75
2023/01/31 13:16:37;;;;;;;28.70;12.40;;;;;;;-1.00;100.00;98152.22;107071;1273;24259;-75
2023/01/31 13:19:33;;;;;;;24.60;11.00;;;;;;;-1.04;100.00;98144.21;106997;1267;25309;-75
2023/01/31 13:22:04;;;;;;;27.70;12.10;;;;;;;-1.04;100.00;98132.37;107288;1269;25300;-74
2023/01/31 13:24:47;;;;;;;26.20;11.80;;;;;;;-1.03;100.00;98120.50;107148;1266;22519;-73
2023/01/31 13:27:29;;;;;;;30.50;12.60;;;;;;;-1.03;100.00;98110.91;107221;1273;22523;-73
2023/01/31 13:30:02;;;;;;;31.80;13.00;;;;;;;-1.04;100.00;98101.97;106458;1273;1003770;-76
2023/01/31 13:32:41;;;;;;;34.10;13.70;;;;;;;-1.04;100.00;98097.61;107251;1266;24581;-76
2023/01/31 13:35:18;;;;;;;28.50;12.80;;;;;;;-1.06;100.00;98087.86;107184;1267;23896;-76
2023/01/31 13:37:47;;;;;;;24.00;11.00;;;;;;;-1.08;100.00;98082.38;106556;1267;1002840;-72
2023/01/31 13:40:25;;;;;;;26.20;12.70;;;;;;;-1.09;100.00;98074.20;107125;1270;25393;-71
2023/01/31 13:42:52;;;;;;;28.10;12.40;;;;;;;-1.12;100.00;98069.02;107069;1273;22528;-72
2023/01/31 13:45:32;;;;;;;23.90;11.00;;;;;;;-1.15;100.00;98057.20;106896;1273;25452;-74
2023/01/31 13:48:09;;;;;;;23.90;10.70;;;;;;;-1.16;100.00;98047.90;106940;1273;25454;-74
2023/01/31 13:50:47;;;;;;;30.50;13.00;;;;;;;-1.18;100.00;98037.12;107070;1273;23191;-73
2023/01/31 13:53:23;;;;;;;28.00;12.10;;;;;;;-1.18;100.00;98027.61;106996;1270;25395;-73
2023/01/31 13:55:52;;;;;;;27.60;12.60;;;;;;;-1.19;100.00;98015.49;106183;1273;1003594;-73
2023/01/31 13:58:32;;;;;;;27.10;12.20;;;;;;;-1.21;100.00;98012.38;107136;1273;22559;-72
2023/01/31 14:01:07;;;;;;;29.90;13.50;;;;;;;-1.22;100.00;98002.86;107047;1273;25341;-76
2023/01/31 14:04:10;;;;;;;29.10;12.20;;;;;;;-1.22;100.00;97994.96;107041;1273;26522;-74
2023/01/31 14:07:09;;;;;;;27.60;11.80;;;;;;;-1.22;100.00;97981.53;106316;1273;1003030;-74
2023/01/31 14:09:37;;;;;;;27.10;12.10;;;;;;;-1.24;100.00;97967.70;106966;1272;1002543;-72
2023/01/31 14:12:16;;;;;;;26.50;12.50;;;;;;;-1.25;100.00;97959.87;109052;1259;22475;-73
2023/01/31 14:14:46;;;;;;;26.50;13.10;;;;;;;-1.26;100.00;97953.11;108965;1273;26570;-73
2023/01/31 14:17:22;;;;;;;32.90;15.90;;;;;;;-1.26;100.00;97941.61;109233;1273;25572;-73